Time;durP1;ratioP1;P1;durP2;ratioP2;P2;SDS_P1;SDS_P2;PMS_P1;PMS_P2;Temp;Humidity;BMP_temperature;BMP_pressure;BME280_temperature;BME280_humidity;BME280_pressure;Samples;Min_cycle;Max_cycle;Signal;HPM_P1;HPM_P2
2022/04/02 00:00:53;;;;;;;;;;;2.60;99.90;;;;;;5134059;27;20402;-64
2022/04/02 00:03:19;;;;;;;;;;;2.50;99.90;;;;;;5134357;27;19921;-63
2022/04/02 00:05:45;;;;;;;;;;;2.60;99.90;;;;;;5134285;27;20421;-64
2022/04/02 00:08:10;;;;;;;;;;;2.50;99.90;;;;;;5134039;27;19919;-64
2022/04/02 00:10:36;;;;;;;;;;;2.50;99.90;;;;;;5133696;27;19915;-64
2022/04/02 00:13:01;;;;;;;;;;;2.50;99.90;;;;;;5133951;27;19968;-64
2022/04/02 00:15:27;;;;;;;;;;;2.40;99.90;;;;;;5133861;27;19957;-64
2022/04/02 00:17:52;;;;;;;;;;;2.40;99.90;;;;;;5134042;27;19927;-64
2022/04/02 00:20:18;;;;;;;;;;;2.40;99.90;;;;;;5133553;27;19954;-64
2022/04/02 00:23:35;;;;;;;;;;;2.50;99.90;;;;;;5133805;27;19922;-63
2022/04/02 00:25:29;;;;;;;;;;;2.40;99.90;;;;;;5133536;27;20367;-64
2022/04/02 00:27:55;;;;;;;;;;;2.40;99.90;;;;;;5133618;27;19994;-64
2022/04/02 00:30:20;;;;;;;;;;;2.40;99.90;;;;;;5133256;27;19926;-64
2022/04/02 00:32:46;;;;;;;;;;;2.40;99.90;;;;;;5133602;27;19927;-64
2022/04/02 00:35:11;;;;;;;;;;;2.40;99.90;;;;;;5133538;27;20383;-64
2022/04/02 00:37:37;;;;;;;;;;;2.30;99.90;;;;;;5133622;27;20006;-64
2022/04/02 00:40:02;;;;;;;;;;;2.30;99.90;;;;;;5133159;27;19922;-64
2022/04/02 00:42:28;;;;;;;;;;;2.30;99.90;;;;;;5133399;27;20319;-63
2022/04/02 00:44:53;;;;;;;;;;;2.30;99.90;;;;;;5133346;27;19920;-64
2022/04/02 00:47:20;;;;;;;;;;;2.30;99.90;;;;;;5131298;27;19919;-64
2022/04/02 00:49:46;;;;;;;;;;;2.30;99.90;;;;;;5132934;27;19978;-64
2022/04/02 00:52:13;;;;;;;;;;;2.30;99.90;;;;;;5133314;27;20356;-63
2022/04/02 00:54:39;;;;;;;;;;;2.20;99.90;;;;;;5133215;27;19922;-64
2022/04/02 00:57:04;;;;;;;;;;;2.20;99.90;;;;;;5133110;27;19969;-64
2022/04/02 00:59:30;;;;;;;;;;;2.30;99.90;;;;;;5131663;27;19927;-64
2022/04/02 01:01:56;;;;;;;;;;;2.20;99.90;;;;;;5131604;27;19919;-64
2022/04/02 01:04:21;;;;;;;;;;;2.30;99.90;;;;;;5133112;27;19963;-64
2022/04/02 01:06:47;;;;;;;;;;;2.20;99.90;;;;;;5133073;27;19961;-64
2022/04/02 01:09:12;;;;;;;;;;;2.20;99.90;;;;;;5132637;27;20434;-64
2022/04/02 01:11:39;;;;;;;;;;;2.20;99.90;;;;;;5132726;27;19966;-64
2022/04/02 01:14:05;;;;;;;;;;;2.20;99.90;;;;;;5132830;27;19952;-64
2022/04/02 01:16:32;;;;;;;;;;;2.20;99.90;;;;;;5132764;27;19919;-64
2022/04/02 01:18:58;;;;;;;;;;;2.20;99.90;;;;;;5132582;27;20294;-64
2022/04/02 01:21:23;;;;;;;;;;;2.10;99.90;;;;;;5132730;27;19922;-64
2022/04/02 01:23:49;;;;;;;;;;;2.20;99.90;;;;;;5132791;27;19922;-63
2022/04/02 01:26:14;;;;;;;;;;;2.10;99.90;;;;;;5132695;27;20276;-64
2022/04/02 01:28:40;;;;;;;;;;;2.20;99.90;;;;;;5132230;27;19934;-64
2022/04/02 01:31:06;;;;;;;;;;;2.20;99.90;;;;;;5132411;27;19923;-64
2022/04/02 01:33:32;;;;;;;;;;;2.10;99.90;;;;;;5132372;27;19915;-64
2022/04/02 01:36:01;;;;;;;;;;;2.10;99.90;;;;;;5132537;27;19923;-63
2022/04/02 01:38:27;;;;;;;;;;;2.10;99.90;;;;;;5132187;27;20005;-64
2022/04/02 01:40:52;;;;;;;;;;;2.00;99.90;;;;;;5132268;27;19919;-64
2022/04/02 01:43:18;;;;;;;;;;;2.10;99.90;;;;;;5132331;27;19915;-64
2022/04/02 01:45:43;;;;;;;;;;;2.00;99.90;;;;;;5132220;27;19915;-64
2022/04/02 01:48:09;;;;;;;;;;;2.00;99.90;;;;;;5132519;27;19923;-64
2022/04/02 01:50:34;;;;;;;;;;;2.00;99.90;;;;;;5132062;27;19920;-64
2022/04/02 01:53:00;;;;;;;;;;;2.00;99.90;;;;;;5132447;27;19927;-64
2022/04/02 01:55:25;;;;;;;;;;;1.90;99.90;;;;;;5132307;27;20011;-64
2022/04/02 01:57:51;;;;;;;;;;;1.90;99.90;;;;;;5132549;27;20306;-64
2022/04/02 02:00:16;;;;;;;;;;;1.90;99.90;;;;;;5135642;27;20005;-64
2022/04/02 02:02:42;;;;;;;;;;;2.00;99.90;;;;;;5136696;27;19915;-63
2022/04/02 02:05:07;;;;;;;;;;;1.90;99.90;;;;;;5136516;27;19959;-64
2022/04/02 02:07:33;;;;;;;;;;;1.90;99.90;;;;;;5136421;27;19965;-64
2022/04/02 02:09:58;;;;;;;;;;;1.90;99.90;;;;;;5135958;27;19915;-64
2022/04/02 02:12:24;;;;;;;;;;;1.90;99.90;;;;;;5136169;27;19981;-64
2022/04/02 02:14:50;;;;;;;;;;;1.90;99.90;;;;;;5136405;27;20002;-64
2022/04/02 02:17:15;;;;;;;;;;;1.90;99.90;;;;;;5136290;27;19926;-64
2022/04/02 02:19:41;;;;;;;;;;;1.90;99.90;;;;;;5135728;27;19915;-64
2022/04/02 02:22:06;;;;;;;;;;;1.90;99.90;;;;;;5136173;27;19915;-63
2022/04/02 02:24:32;;;;;;;;;;;1.90;99.90;;;;;;5136074;27;19915;-64
2022/04/02 02:26:58;;;;;;;;;;;1.90;99.90;;;;;;5136246;27;20319;-64
2022/04/02 02:29:23;;;;;;;;;;;1.90;99.90;;;;;;5135963;27;19916;-64
2022/04/02 02:31:49;;;;;;;;;;;1.90;99.90;;;;;;5135932;27;19927;-63
2022/04/02 02:36:59;;;;;;;;;;;1.80;99.90;;;;;;5136006;27;20476;-65
2022/04/02 02:39:24;;;;;;;;;;;1.80;99.90;;;;;;5135458;27;20009;-64
2022/04/02 02:41:50;;;;;;;;;;;1.80;99.90;;;;;;5135928;27;20492;-64
2022/04/02 02:44:15;;;;;;;;;;;1.80;99.90;;;;;;5135860;27;20022;-64
2022/04/02 02:46:41;;;;;;;;;;;1.80;99.90;;;;;;5135672;27;19926;-64
2022/04/02 02:49:06;;;;;;;;;;;1.80;99.90;;;;;;5133982;27;19994;-64
2022/04/02 02:51:32;;;;;;;;;;;1.70;99.90;;;;;;5134112;27;19919;-64
2022/04/02 02:53:57;;;;;;;;;;;1.70;99.90;;;;;;5135400;27;19915;-64
2022/04/02 02:56:23;;;;;;;;;;;1.60;99.90;;;;;;5135672;27;20002;-64
2022/04/02 02:58:48;;;;;;;;;;;1.70;99.90;;;;;;5135308;27;19960;-64
2022/04/02 03:01:14;;;;;;;;;;;1.60;99.90;;;;;;5135351;27;19919;-64
2022/04/02 03:03:39;;;;;;;;;;;1.70;99.90;;;;;;5138337;27;19915;-63
2022/04/02 03:06:05;;;;;;;;;;;1.60;99.90;;;;;;5139380;27;19919;-65
2022/04/02 03:08:30;;;;;;;;;;;1.50;99.90;;;;;;5138388;27;20512;-65
2022/04/02 03:10:56;;;;;;;;;;;1.60;99.90;;;;;;5138133;27;19926;-64
2022/04/02 03:13:21;;;;;;;;;;;1.60;99.90;;;;;;5136374;27;19919;-63
2022/04/02 03:15:47;;;;;;;;;;;1.60;99.90;;;;;;5135063;27;19923;-64
2022/04/02 03:18:12;;;;;;;;;;;1.50;99.90;;;;;;5135178;27;19921;-64
2022/04/02 03:20:38;;;;;;;;;;;1.60;99.90;;;;;;5134667;27;20003;-64
2022/04/02 03:23:04;;;;;;;;;;;1.50;99.90;;;;;;5135019;27;19915;-64
2022/04/02 03:25:30;;;;;;;;;;;1.50;99.90;;;;;;5135106;27;20298;-64
2022/04/02 03:27:56;;;;;;;;;;;1.50;99.90;;;;;;5134874;27;20010;-64
2022/04/02 03:30:22;;;;;;;;;;;1.50;99.90;;;;;;5134495;27;19989;-65
2022/04/02 03:32:48;;;;;;;;;;;1.40;99.90;;;;;;5134792;27;19980;-65
2022/04/02 03:35:14;;;;;;;;;;;1.50;99.90;;;;;;5134767;27;19923;-65
2022/04/02 03:37:41;;;;;;;;;;;1.50;99.90;;;;;;5134413;27;19916;-64
2022/04/02 03:40:08;;;;;;;;;;;1.50;99.90;;;;;;5133900;27;19922;-64
2022/04/02 03:42:37;;;;;;;;;;;1.50;99.90;;;;;;5134495;27;19915;-64
2022/04/02 03:45:03;;;;;;;;;;;1.50;99.90;;;;;;5134369;27;19915;-64
2022/04/02 03:47:30;;;;;;;;;;;1.50;99.90;;;;;;5133364;27;20320;-64
2022/04/02 03:49:55;;;;;;;;;;;1.40;99.90;;;;;;5134057;27;20394;-64
2022/04/02 03:52:21;;;;;;;;;;;1.40;99.90;;;;;;5134371;27;19923;-64
2022/04/02 03:54:46;;;;;;;;;;;1.40;99.90;;;;;;5134310;27;19980;-64
2022/04/02 03:57:13;;;;;;;;;;;1.40;99.90;;;;;;5134465;27;19920;-64
2022/04/02 03:59:40;;;;;;;;;;;1.40;99.90;;;;;;5133824;27;20010;-64
2022/04/02 04:02:06;;;;;;;;;;;1.30;99.90;;;;;;5134324;27;19919;-64
2022/04/02 04:04:32;;;;;;;;;;;1.30;99.90;;;;;;5134336;27;20295;-64
2022/04/02 04:06:58;;;;;;;;;;;1.30;99.90;;;;;;5134148;27;19915;-64
2022/04/02 04:09:24;;;;;;;;;;;1.30;99.90;;;;;;5133710;27;19915;-64
2022/04/02 04:11:50;;;;;;;;;;;1.30;99.90;;;;;;5134095;27;20387;-64
2022/04/02 04:14:16;;;;;;;;;;;1.30;99.90;;;;;;5134022;27;19922;-64
2022/04/02 04:16:42;;;;;;;;;;;1.30;99.90;;;;;;5132706;27;19919;-64
2022/04/02 04:19:07;;;;;;;;;;;1.40;99.90;;;;;;5133663;27;20267;-64
2022/04/02 04:21:34;;;;;;;;;;;1.30;99.90;;;;;;5132916;27;19960;-64
2022/04/02 04:24:00;;;;;;;;;;;1.30;99.90;;;;;;5133728;27;20442;-64
2022/04/02 04:26:25;;;;;;;;;;;1.30;99.90;;;;;;5133962;27;19922;-64
2022/04/02 04:28:51;;;;;;;;;;;1.30;99.90;;;;;;5133377;27;20010;-65
2022/04/02 04:31:18;;;;;;;;;;;1.30;99.90;;;;;;5133362;27;20387;-64
2022/04/02 04:33:43;;;;;;;;;;;1.30;99.90;;;;;;5133688;27;19959;-64
2022/04/02 04:36:09;;;;;;;;;;;1.30;99.90;;;;;;5132432;27;19955;-64
2022/04/02 04:38:35;;;;;;;;;;;1.30;99.90;;;;;;5132849;27;19922;-64
2022/04/02 04:41:02;;;;;;;;;;;1.40;99.90;;;;;;5133759;27;19942;-65
2022/04/02 04:43:27;;;;;;;;;;;1.40;99.90;;;;;;5136669;27;19922;-64
2022/04/02 04:45:53;;;;;;;;;;;1.30;99.90;;;;;;5136342;27;19915;-64
2022/04/02 04:48:20;;;;;;;;;;;1.30;99.90;;;;;;5136025;27;19922;-63
2022/04/02 04:50:45;;;;;;;;;;;1.40;99.90;;;;;;5136302;27;19915;-65
2022/04/02 04:53:11;;;;;;;;;;;1.30;99.90;;;;;;5136527;27;19991;-65
2022/04/02 04:55:36;;;;;;;;;;;1.30;99.90;;;;;;5136038;27;20005;-64
2022/04/02 04:58:02;;;;;;;;;;;1.30;99.90;;;;;;5133712;27;19965;-63
2022/04/02 05:00:27;;;;;;;;;;;1.30;99.90;;;;;;5132785;27;19942;-65
2022/04/02 05:02:53;;;;;;;;;;;1.30;99.90;;;;;;5133204;27;19916;-65
2022/04/02 05:05:18;;;;;;;;;;;1.20;99.90;;;;;;5132930;27;19915;-64
2022/04/02 05:07:44;;;;;;;;;;;1.20;99.90;;;;;;5132368;27;20010;-64
2022/04/02 05:10:10;;;;;;;;;;;1.20;99.90;;;;;;5129492;27;19922;-63
2022/04/02 05:12:36;;;;;;;;;;;1.20;99.90;;;;;;5128894;27;19930;-64
2022/04/02 05:15:03;;;;;;;;;;;1.20;99.90;;;;;;5132934;27;19954;-64
2022/04/02 05:17:30;;;;;;;;;;;1.30;99.90;;;;;;5132306;27;19954;-64
2022/04/02 05:19:56;;;;;;;;;;;1.20;99.90;;;;;;5131174;27;20298;-64
2022/04/02 05:22:21;;;;;;;;;;;1.30;99.90;;;;;;5132446;27;19983;-64
2022/04/02 05:24:47;;;;;;;;;;;1.30;99.90;;;;;;5132827;27;19960;-64
2022/04/02 05:27:12;;;;;;;;;;;1.20;99.90;;;;;;5131674;27;20294;-64
2022/04/02 05:29:37;;;;;;;;;;;1.30;99.90;;;;;;5132342;27;19915;-64
2022/04/02 05:32:03;;;;;;;;;;;1.30;99.90;;;;;;5131251;27;20002;-64
2022/04/02 05:34:29;;;;;;;;;;;1.30;99.90;;;;;;5132361;27;19998;-63
2022/04/02 05:36:55;;;;;;;;;;;1.30;99.90;;;;;;5132759;27;19939;-64
2022/04/02 05:39:20;;;;;;;;;;;1.30;99.90;;;;;;5132343;27;20251;-64
2022/04/02 05:41:46;;;;;;;;;;;1.30;99.90;;;;;;5132340;27;20018;-64
2022/04/02 05:44:11;;;;;;;;;;;1.30;99.90;;;;;;5132504;27;19915;-65
2022/04/02 05:46:37;;;;;;;;;;;1.40;99.90;;;;;;5132430;27;20346;-64
2022/04/02 05:49:03;;;;;;;;;;;1.30;99.90;;;;;;5131754;27;19915;-63
2022/04/02 05:51:29;;;;;;;;;;;1.40;99.90;;;;;;5119089;27;20315;-64
2022/04/02 05:53:54;;;;;;;;;;;1.40;99.90;;;;;;5111993;28;19965;-64
2022/04/02 05:56:20;;;;;;;;;;;1.30;99.90;;;;;;5110383;28;19922;-64
2022/04/02 05:58:45;;;;;;;;;;;1.40;99.90;;;;;;5111522;28;20519;-63
2022/04/02 06:01:11;;;;;;;;;;;1.40;99.90;;;;;;5111626;28;20381;-64
2022/04/02 06:03:39;;;;;;;;;;;1.30;99.90;;;;;;5111909;28;19915;-64
2022/04/02 06:06:05;;;;;;;;;;;1.40;99.90;;;;;;5111706;28;19919;-64
2022/04/02 06:08:32;;;;;;;;;;;1.40;99.90;;;;;;5111288;28;19919;-64
2022/04/02 06:10:57;;;;;;;;;;;1.40;99.90;;;;;;5111257;28;19915;-64
2022/04/02 06:13:22;;;;;;;;;;;1.40;99.90;;;;;;5110344;28;19915;-64
2022/04/02 06:15:48;;;;;;;;;;;1.40;99.90;;;;;;5111487;28;19915;-63
2022/04/02 06:18:17;;;;;;;;;;;1.40;99.90;;;;;;5111442;28;20345;-64
2022/04/02 06:20:44;;;;;;;;;;;1.50;99.90;;;;;;5111349;28;20397;-64
2022/04/02 06:23:09;;;;;;;;;;;1.40;99.90;;;;;;5111688;28;20291;-64
2022/04/02 06:25:35;;;;;;;;;;;1.50;99.90;;;;;;5111563;28;19922;-64
2022/04/02 06:28:00;;;;;;;;;;;1.50;99.90;;;;;;5102487;28;20456;-64
2022/04/02 06:30:26;;;;;;;;;;;1.50;99.90;;;;;;5110633;28;19925;-64
2022/04/02 06:32:51;;;;;;;;;;;1.60;99.90;;;;;;5107936;28;19919;-64
2022/04/02 06:35:18;;;;;;;;;;;1.60;99.90;;;;;;5110590;28;19923;-64
2022/04/02 06:37:43;;;;;;;;;;;1.70;99.90;;;;;;5110931;28;19916;-64
2022/04/02 06:40:12;;;;;;;;;;;1.70;99.90;;;;;;5110704;28;19916;-64
2022/04/02 06:42:37;;;;;;;;;;;1.80;99.90;;;;;;5117608;28;19916;-64
2022/04/02 06:45:04;;;;;;;;;;;1.70;99.90;;;;;;5129832;27;20006;-63
2022/04/02 06:47:30;;;;;;;;;;;1.80;99.90;;;;;;5135600;27;19915;-64
2022/04/02 06:49:56;;;;;;;;;;;1.80;99.90;;;;;;5134899;27;19920;-64
2022/04/02 06:52:22;;;;;;;;;;;1.80;99.90;;;;;;5135557;27;20283;-64
2022/04/02 06:54:47;;;;;;;;;;;1.90;99.90;;;;;;5117354;27;19961;-64
2022/04/02 06:57:20;;;;;;;;;;;1.90;99.90;;;;;;5135652;27;19967;-64
2022/04/02 06:59:45;;;;;;;;;;;2.00;99.90;;;;;;5135015;27;19978;-63
2022/04/02 07:02:11;;;;;;;;;;;2.10;99.90;;;;;;5135754;27;20351;-64
2022/04/02 07:04:36;;;;;;;;;;;2.20;99.90;;;;;;5135260;27;19915;-64
2022/04/02 07:07:02;;;;;;;;;;;2.20;99.90;;;;;;5135425;27;19950;-64
2022/04/02 07:09:28;;;;;;;;;;;2.20;99.90;;;;;;5135014;27;19922;-64
2022/04/02 07:11:53;;;;;;;;;;;2.30;99.90;;;;;;5135152;27;19926;-64
2022/04/02 07:14:19;;;;;;;;;;;2.40;99.90;;;;;;5135155;27;19915;-64
2022/04/02 07:16:44;;;;;;;;;;;2.40;99.90;;;;;;5135301;27;20477;-64
2022/04/02 07:19:10;;;;;;;;;;;2.50;99.90;;;;;;5134833;27;20472;-64
2022/04/02 07:21:35;;;;;;;;;;;2.60;99.90;;;;;;5134888;27;20010;-63
2022/04/02 07:24:01;;;;;;;;;;;2.70;99.90;;;;;;5135041;27;19919;-64
2022/04/02 07:26:28;;;;;;;;;;;2.80;99.90;;;;;;5134859;27;19921;-64
2022/04/02 07:28:54;;;;;;;;;;;2.80;99.90;;;;;;5134519;27;19960;-64
2022/04/02 07:31:19;;;;;;;;;;;2.90;99.90;;;;;;5134997;27;19923;-64
2022/04/02 07:33:45;;;;;;;;;;;3.00;99.90;;;;;;5135058;27;19915;-64
2022/04/02 07:36:18;;;;;;;;;;;3.10;99.90;;;;;;5134809;27;19919;-64
2022/04/02 07:38:50;;;;;;;;;;;3.10;99.90;;;;;;5109415;27;19923;-63
2022/04/02 07:41:34;;;;;;;;;;;3.20;99.90;;;;;;5108203;28;19916;-64
2022/04/02 07:44:07;;;;;;;;;;;3.40;99.90;;;;;;5114232;28;20023;-64
2022/04/02 07:46:33;;;;;;;;;;;3.40;99.90;;;;;;5113996;28;19919;-64
2022/04/02 07:48:58;;;;;;;;;;;3.40;99.90;;;;;;5113665;28;19961;-64
2022/04/02 07:51:26;;;;;;;;;;;3.50;99.90;;;;;;5113805;28;19924;-64
2022/04/02 07:53:54;;;;;;;;;;;3.60;99.90;;;;;;5095406;28;19925;-64
2022/04/02 07:56:25;;;;;;;;;;;3.60;99.90;;;;;;5113886;28;19999;-64
2022/04/02 07:58:58;;;;;;;;;;;3.70;99.90;;;;;;5113543;28;19915;-63
2022/04/02 08:01:24;;;;;;;;;;;3.70;99.90;;;;;;5113707;28;19916;-67
2022/04/02 08:03:49;;;;;;;;;;;3.80;99.90;;;;;;5113592;28;19976;-66
2022/04/02 08:06:15;;;;;;;;;;;3.80;99.90;;;;;;5113512;28;19938;-66
2022/04/02 08:08:41;;;;;;;;;;;3.90;99.90;;;;;;5113154;28;20302;-67
2022/04/02 08:11:08;;;;;;;;;;;3.90;99.90;;;;;;5113730;28;19915;-66
2022/04/02 08:13:34;;;;;;;;;;;4.00;99.90;;;;;;5113907;28;19916;-67
2022/04/02 08:16:00;;;;;;;;;;;4.00;99.90;;;;;;5113701;28;19922;-66
2022/04/02 08:18:28;;;;;;;;;;;4.00;99.90;;;;;;5112987;28;19915;-65
2022/04/02 08:20:54;;;;;;;;;;;4.10;99.90;;;;;;5113353;28;20290;-67
2022/04/02 08:23:20;;;;;;;;;;;4.10;99.90;;;;;;5112483;28;19916;-69
2022/04/02 08:26:02;;;;;;;;;;;4.20;99.90;;;;;;5113372;28;19921;-68
2022/04/02 08:28:36;;;;;;;;;;;4.20;99.90;;;;;;5113047;28;19915;-66
2022/04/02 08:31:04;;;;;;;;;;;4.20;99.90;;;;;;5112858;28;19922;-69
2022/04/02 08:33:48;;;;;;;;;;;4.20;99.90;;;;;;5112346;28;19915;-66
2022/04/02 08:36:22;;;;;;;;;;;4.40;99.90;;;;;;5101924;28;19943;-68
2022/04/02 08:39:04;;;;;;;;;;;4.40;99.90;;;;;;5100435;28;19984;-67
2022/04/02 08:41:35;;;;;;;;;;;4.60;99.90;;;;;;5100637;28;19923;-67
2022/04/02 08:44:19;;;;;;;;;;;4.60;99.90;;;;;;5101555;28;20371;-67
2022/04/02 08:46:48;;;;;;;;;;;4.60;99.90;;;;;;5101538;28;19923;-67
2022/04/02 08:49:21;;;;;;;;;;;4.70;99.90;;;;;;5101214;28;19916;-68
2022/04/02 08:51:47;;;;;;;;;;;4.70;99.90;;;;;;5100614;28;20422;-67
2022/04/02 08:54:23;;;;;;;;;;;4.70;99.90;;;;;;5102522;28;19953;-67
2022/04/02 08:56:52;;;;;;;;;;;4.80;99.90;;;;;;5102222;28;19916;-67
2022/04/02 08:59:32;;;;;;;;;;;4.80;99.90;;;;;;5102321;28;19959;-66
2022/04/02 09:02:06;;;;;;;;;;;4.80;99.90;;;;;;5112509;28;19965;-66
2022/04/02 09:04:55;;;;;;;;;;;4.90;99.90;;;;;;5112412;28;19929;-66
2022/04/02 09:07:20;;;;;;;;;;;5.00;99.90;;;;;;5110244;28;20310;-66
2022/04/02 09:10:04;;;;;;;;;;;5.00;99.90;;;;;;5112041;28;19927;-67
2022/04/02 09:12:29;;;;;;;;;;;5.10;99.90;;;;;;5111933;28;19926;-67
2022/04/02 09:15:05;;;;;;;;;;;5.10;99.90;;;;;;5112213;28;19998;-67
2022/04/02 09:17:37;;;;;;;;;;;5.20;99.90;;;;;;5111141;28;19919;-66
2022/04/02 09:20:13;;;;;;;;;;;5.30;99.00;;;;;;5108202;28;20006;-67
2022/04/02 09:22:50;;;;;;;;;;;5.30;99.40;;;;;;5103657;28;19954;-67
2022/04/02 09:25:31;;;;;;;;;;;5.40;97.30;;;;;;5110743;28;19959;-67
2022/04/02 09:27:56;;;;;;;;;;;5.30;98.50;;;;;;5111993;28;19919;-67
2022/04/02 09:30:24;;;;;;;;;;;5.30;95.40;;;;;;5111549;28;20006;-67
2022/04/02 09:33:09;;;;;;;;;;;5.50;99.90;;;;;;5111863;28;19920;-67
2022/04/02 09:35:40;;;;;;;;;;;5.50;98.10;;;;;;5111849;28;20379;-67
2022/04/02 09:38:14;;;;;;;;;;;5.60;95.90;;;;;;5111911;28;19958;-67
2022/04/02 09:40:48;;;;;;;;;;;5.70;98.20;;;;;;5111448;28;20052;-67
2022/04/02 09:43:23;;;;;;;;;;;5.80;85.40;;;;;;5111805;28;20375;-67
2022/04/02 09:45:56;;;;;;;;;;;5.80;75.60;;;;;;5111907;28;19922;-67
2022/04/02 09:48:27;;;;;;;;;;;5.90;85.70;;;;;;5110398;28;19930;-67
2022/04/02 09:50:56;;;;;;;;;;;5.80;84.00;;;;;;5110374;28;20425;-67
2022/04/02 09:53:26;;;;;;;;;;;5.70;94.70;;;;;;5111630;28;19923;-67
2022/04/02 09:56:10;;;;;;;;;;;5.70;92.90;;;;;;5111993;28;19962;-67
2022/04/02 09:58:38;;;;;;;;;;;5.70;96.60;;;;;;5110275;28;19916;-67
2022/04/02 10:01:05;;;;;;;;;;;5.60;99.90;;;;;;5111617;28;20333;-67
2022/04/02 10:03:41;;;;;;;;;;;5.50;99.90;;;;;;5111563;28;20002;-67
2022/04/02 10:06:25;;;;;;;;;;;5.30;99.90;;;;;;5111809;28;19920;-67
2022/04/02 10:08:51;;;;;;;;;;;5.10;99.90;;;;;;5111545;28;19920;-67
2022/04/02 10:11:17;;;;;;;;;;;4.90;99.90;;;;;;5111571;28;19923;-67
2022/04/02 10:13:44;;;;;;;;;;;4.80;99.90;;;;;;5111669;28;20291;-67
2022/04/02 10:16:11;;;;;;;;;;;4.80;99.90;;;;;;5111411;28;20295;-67
2022/04/02 10:18:38;;;;;;;;;;;4.70;99.90;;;;;;5111406;28;19964;-67
2022/04/02 10:21:05;;;;;;;;;;;4.70;99.90;;;;;;5114566;28;19915;-67
2022/04/02 10:23:33;;;;;;;;;;;4.70;99.90;;;;;;5115657;28;19961;-66
2022/04/02 10:26:03;;;;;;;;;;;4.60;99.90;;;;;;5115484;28;20028;-67
2022/04/02 10:28:30;;;;;;;;;;;4.60;99.90;;;;;;5113816;28;20409;-63
2022/04/02 10:30:57;;;;;;;;;;;4.60;99.90;;;;;;5115544;28;19916;-65
2022/04/02 10:33:27;;;;;;;;;;;4.60;99.90;;;;;;5115574;28;19919;-64
2022/04/02 10:35:54;;;;;;;;;;;4.60;99.90;;;;;;5105959;28;20003;-64
2022/04/02 10:38:25;;;;;;;;;;;4.70;99.90;;;;;;5104799;28;19916;-64
2022/04/02 10:40:52;;;;;;;;;;;4.70;99.90;;;;;;5106006;28;19915;-64
2022/04/02 10:43:28;;;;;;;;;;;4.80;99.90;;;;;;5104509;28;19920;-66
2022/04/02 10:45:54;;;;;;;;;;;4.80;99.90;;;;;;5102308;28;19962;-66
2022/04/02 10:48:26;;;;;;;;;;;4.90;99.90;;;;;;5103663;28;19980;-67
2022/04/02 10:50:54;;;;;;;;;;;4.80;99.90;;;;;;5103675;28;20402;-67
2022/04/02 10:53:21;;;;;;;;;;;4.90;99.90;;;;;;5104259;28;20360;-67
2022/04/02 10:55:49;;;;;;;;;;;4.90;98.20;;;;;;5105448;28;19920;-66
2022/04/02 10:58:20;;;;;;;;;;;5.00;99.90;;;;;;5100002;28;20292;-66
2022/04/02 11:00:46;;;;;;;;;;;5.10;86.40;;;;;;5094547;28;20030;-67
2022/04/02 11:03:19;;;;;;;;;;;5.10;88.40;;;;;;5093145;28;19916;-67
2022/04/02 11:05:45;;;;;;;;;;;5.20;85.10;;;;;;5093187;28;19916;-66
2022/04/02 11:08:11;;;;;;;;;;;5.30;85.50;;;;;;5094264;28;19962;-66
2022/04/02 11:10:37;;;;;;;;;;;5.40;77.80;;;;;;5094285;28;19927;-66
2022/04/02 11:13:04;;;;;;;;;;;5.50;79.50;;;;;;5094375;28;19920;-67
2022/04/02 11:15:36;;;;;;;;;;;5.70;86.90;;;;;;5093000;28;19916;-68
2022/04/02 11:18:02;;;;;;;;;;;5.60;97.50;;;;;;5094152;28;20394;-67
2022/04/02 11:20:32;;;;;;;;;;;5.70;97.60;;;;;;5093832;28;19916;-68
2022/04/02 11:23:12;;;;;;;;;;;5.60;98.90;;;;;;5093947;28;19920;-66
2022/04/02 11:25:39;;;;;;;;;;;5.50;99.90;;;;;;5094258;28;20002;-66
2022/04/02 11:28:05;;;;;;;;;;;5.50;99.90;;;;;;5094020;28;19916;-66
2022/04/02 11:30:32;;;;;;;;;;;5.00;99.90;;;;;;5091440;28;19920;-67
2022/04/02 11:33:05;;;;;;;;;;;5.10;99.90;;;;;;5093801;28;19927;-68
2022/04/02 11:35:35;;;;;;;;;;;4.90;99.90;;;;;;5094060;28;19979;-66
2022/04/02 11:38:03;;;;;;;;;;;5.00;99.90;;;;;;5093745;28;20380;-67
2022/04/02 11:40:29;;;;;;;;;;;5.00;99.90;;;;;;5093546;28;19968;-66
2022/04/02 11:42:59;;;;;;;;;;;5.00;99.90;;;;;;5093857;28;19923;-67
2022/04/02 11:45:25;;;;;;;;;;;5.00;99.90;;;;;;5098890;28;19926;-66
2022/04/02 11:47:51;;;;;;;;;;;5.10;99.90;;;;;;5113729;28;19923;-68
2022/04/02 11:50:25;;;;;;;;;;;5.00;99.90;;;;;;5113425;27;19955;-66
2022/04/02 11:52:52;;;;;;;;;;;4.90;99.90;;;;;;5113650;28;19927;-66
2022/04/02 11:55:18;;;;;;;;;;;4.90;99.90;;;;;;5114013;28;19961;-66
2022/04/02 11:57:55;;;;;;;;;;;4.90;99.90;;;;;;5116171;27;19920;-67
2022/04/02 12:00:24;;;;;;;;;;;5.00;99.90;;;;;;5117484;28;19923;-68
2022/04/02 12:02:51;;;;;;;;;;;5.10;95.10;;;;;;5117793;28;20014;-67
2022/04/02 12:05:16;;;;;;;;;;;5.10;98.90;;;;;;5117423;28;19926;-68
2022/04/02 12:07:45;;;;;;;;;;;5.10;85.30;;;;;;5114350;28;19995;-67
2022/04/02 12:10:32;;;;;;;;;;;5.20;94.90;;;;;;5113257;27;19916;-65
2022/04/02 12:12:58;;;;;;;;;;;5.20;92.20;;;;;;5112989;28;19974;-66
2022/04/02 12:15:24;;;;;;;;;;;5.10;98.70;;;;;;5113343;28;19919;-66
2022/04/02 12:17:58;;;;;;;;;;;5.10;99.90;;;;;;5113250;28;20333;-66
2022/04/02 12:20:32;;;;;;;;;;;5.00;99.90;;;;;;5112806;28;20002;-66
2022/04/02 12:23:09;;;;;;;;;;;4.90;99.90;;;;;;5112933;28;19951;-68
2022/04/02 12:25:35;;;;;;;;;;;4.90;99.90;;;;;;5094866;28;19959;-65
2022/04/02 12:28:08;;;;;;;;;;;4.80;99.90;;;;;;5113193;28;19927;-67
2022/04/02 12:30:35;;;;;;;;;;;4.90;99.90;;;;;;5112799;28;20146;-67
2022/04/02 12:33:07;;;;;;;;;;;4.90;97.70;;;;;;5112724;28;19981;-67
2022/04/02 12:35:33;;;;;;;;;;;5.00;99.90;;;;;;5112860;28;19922;-66
2022/04/02 12:38:02;;;;;;;;;;;5.10;96.50;;;;;;5111636;28;20002;-66
2022/04/02 12:40:28;;;;;;;;;;;5.10;96.70;;;;;;5112600;28;19960;-66
2022/04/02 12:43:01;;;;;;;;;;;5.20;95.90;;;;;;5111859;28;19920;-68
2022/04/02 12:45:27;;;;;;;;;;;5.20;93.90;;;;;;5112558;28;19951;-67
2022/04/02 12:47:59;;;;;;;;;;;5.40;97.80;;;;;;5112803;28;20375;-67
2022/04/02 12:50:25;;;;;;;;;;;5.40;97.90;;;;;;5112091;28;20299;-67
2022/04/02 12:52:51;;;;;;;;;;;5.50;99.90;;;;;;5112218;28;19919;-67
2022/04/02 12:55:17;;;;;;;;;;;5.50;99.90;;;;;;5112519;28;20284;-68
2022/04/02 12:57:54;;;;;;;;;;;5.60;97.70;;;;;;5112290;28;19922;-66
2022/04/02 13:00:26;;;;;;;;;;;5.50;97.20;;;;;;5103939;28;19916;-66
2022/04/02 13:02:56;;;;;;;;;;;5.60;96.30;;;;;;5090941;28;19945;-66
2022/04/02 13:05:23;;;;;;;;;;;5.70;95.10;;;;;;5091286;28;19920;-66
2022/04/02 13:07:54;;;;;;;;;;;5.80;97.30;;;;;;5092765;28;19922;-67
2022/04/02 13:10:21;;;;;;;;;;;6.00;98.70;;;;;;5094476;28;20422;-67
2022/04/02 13:12:50;;;;;;;;;;;6.10;95.90;;;;;;5095854;28;19931;-68
2022/04/02 13:15:16;;;;;;;;;;;6.10;94.90;;;;;;5096855;28;19928;-67
2022/04/02 13:20:28;;;;;;;;;;;6.00;83.00;;;;;;5094236;28;19920;-66
2022/04/02 13:20:34;;;;;;;;;;;6.10;90.80;;;;;;5090110;28;19916;-67
2022/04/02 13:23:01;;;;;;;;;;;6.10;73.30;;;;;;5089722;28;19951;-67
2022/04/02 13:25:29;;;;;;;;;;;5.90;65.50;;;;;;5091027;28;19920;-67
2022/04/02 13:28:13;;;;;;;;;;;5.90;66.10;;;;;;5090588;28;20010;-67
2022/04/02 13:30:40;;;;;;;;;;;5.90;76.80;;;;;;5090552;28;19985;-66
2022/04/02 13:33:24;;;;;;;;;;;5.90;69.00;;;;;;5090047;28;20512;-69
2022/04/02 13:35:51;;;;;;;;;;;5.90;75.80;;;;;;5090602;28;19916;-68
2022/04/02 13:38:35;;;;;;;;;;;6.00;83.50;;;;;;5090314;28;20033;-67
2022/04/02 13:41:03;;;;;;;;;;;6.00;69.20;;;;;;5090347;28;20393;-67
2022/04/02 13:43:35;;;;;;;;;;;5.90;85.40;;;;;;5090597;28;20283;-66
2022/04/02 13:46:05;;;;;;;;;;;5.90;83.30;;;;;;5089909;28;19923;-66
2022/04/02 13:48:33;;;;;;;;;;;5.80;90.10;;;;;;5088562;28;20292;-68
2022/04/02 13:51:18;;;;;;;;;;;5.80;99.90;;;;;;5097422;28;19926;-68
2022/04/02 13:53:47;;;;;;;;;;;5.80;95.60;;;;;;5097912;28;19931;-69
2022/04/02 13:56:14;;;;;;;;;;;5.80;89.60;;;;;;5102209;28;19916;-68
2022/04/02 13:58:44;;;;;;;;;;;5.70;86.90;;;;;;5095719;28;19916;-67
2022/04/02 14:01:14;;;;;;;;;;;5.80;86.10;;;;;;5096538;28;19926;-67
2022/04/02 14:03:43;;;;;;;;;;;5.80;88.50;;;;;;5097245;28;19916;-67
2022/04/02 14:06:09;;;;;;;;;;;5.90;94.90;;;;;;5097132;28;20401;-67
2022/04/02 14:08:35;;;;;;;;;;;5.90;92.50;;;;;;5096682;28;19923;-67
2022/04/02 14:11:08;;;;;;;;;;;5.90;92.80;;;;;;5096798;28;19920;-67
2022/04/02 14:13:35;;;;;;;;;;;5.90;90.70;;;;;;5096891;28;19924;-67
2022/04/02 14:16:01;;;;;;;;;;;5.90;72.60;;;;;;5096800;28;19923;-67
2022/04/02 14:18:37;;;;;;;;;;;5.90;60.30;;;;;;5096819;28;19989;-67
2022/04/02 14:21:21;;;;;;;;;;;5.80;59.90;;;;;;5096916;28;19959;-67
2022/04/02 14:24:05;;;;;;;;;;;5.80;61.40;;;;;;5096323;28;19982;-68
2022/04/02 14:26:50;;;;;;;;;;;5.70;63.20;;;;;;5097057;28;19959;-69
2022/04/02 14:29:21;;;;;;;;;;;5.80;64.30;;;;;;5096457;28;19950;-69
2022/04/02 14:32:13;;;;;;;;;;;5.70;67.00;;;;;;5096793;28;19974;-68
2022/04/02 14:34:44;;;;;;;;;;;5.80;68.80;;;;;;5071896;28;19923;-69
2022/04/02 14:37:18;;;;;;;;;;;5.90;66.10;;;;;;5095946;28;19923;-68
2022/04/02 14:40:03;;;;;;;;;;;6.10;75.20;;;;;;5119722;27;20006;-65